地図

経路データ

SID SEASON NUMBER BASIN SUBBASIN NAME ISO_TIME NATURE LAT LON WMO_WIND WMO_PRES WMO_AGENCY TRACK_TYPE DIST2LAND LANDFALL IFLAG USA_AGENCY USA_ATCF_ID USA_LAT USA_LON USA_RECORD USA_STATUS USA_WIND USA_PRES USA_SSHS USA_R34_NE USA_R34_SE USA_R34_SW USA_R34_NW USA_R50_NE USA_R50_SE USA_R50_SW USA_R50_NW USA_R64_NE USA_R64_SE USA_R64_SW USA_R64_NW USA_POCI USA_ROCI USA_RMW USA_EYE TOKYO_LAT TOKYO_LON TOKYO_GRADE TOKYO_WIND TOKYO_PRES TOKYO_R50_DIR TOKYO_R50_LONG TOKYO_R50_SHORT TOKYO_R30_DIR TOKYO_R30_LONG TOKYO_R30_SHORT TOKYO_LAND CMA_LAT CMA_LON CMA_CAT CMA_WIND CMA_PRES HKO_LAT HKO_LON HKO_CAT HKO_WIND HKO_PRES NEWDELHI_LAT NEWDELHI_LON NEWDELHI_GRADE NEWDELHI_WIND NEWDELHI_PRES NEWDELHI_CI NEWDELHI_DP NEWDELHI_POCI REUNION_LAT REUNION_LON REUNION_TYPE REUNION_WIND REUNION_PRES REUNION_TNUM REUNION_CI REUNION_RMW REUNION_R34_NE REUNION_R34_SE REUNION_R34_SW REUNION_R34_NW REUNION_R50_NE REUNION_R50_SE REUNION_R50_SW REUNION_R50_NW REUNION_R64_NE REUNION_R64_SE REUNION_R64_SW REUNION_R64_NW BOM_LAT BOM_LON BOM_TYPE BOM_WIND BOM_PRES BOM_TNUM BOM_CI BOM_RMW BOM_R34_NE BOM_R34_SE BOM_R34_SW BOM_R34_NW BOM_R50_NE BOM_R50_SE BOM_R50_SW BOM_R50_NW BOM_R64_NE BOM_R64_SE BOM_R64_SW BOM_R64_NW BOM_ROCI BOM_POCI BOM_EYE BOM_POS_METHOD BOM_PRES_METHOD NADI_LAT NADI_LON NADI_CAT NADI_WIND NADI_PRES WELLINGTON_LAT WELLINGTON_LON WELLINGTON_WIND WELLINGTON_PRES DS824_LAT DS824_LON DS824_STAGE DS824_WIND DS824_PRES TD9636_LAT TD9636_LON TD9636_STAGE TD9636_WIND TD9636_PRES TD9635_LAT TD9635_LON TD9635_WIND TD9635_PRES TD9635_ROCI NEUMANN_LAT NEUMANN_LON NEUMANN_CLASS NEUMANN_WIND NEUMANN_PRES MLC_LAT MLC_LON MLC_CLASS MLC_WIND MLC_PRES USA_GUST BOM_GUST BOM_GUST_PER REUNION_GUST REUNION_GUST_PER USA_SEAHGT USA_SEARAD_NE USA_SEARAD_SE USA_SEARAD_SW USA_SEARAD_NW STORM_SPEED STORM_DIR
1948033S11064 1948 14 SI MM NOT_NAMED 1948-02-02 06:00:00 NR -10.7000 64.2000 reunion main 1261 1261 _____O________ -1 -10.7000 64.2000 99 9.90000 1 0
1948033S11064 1948 14 SI MM NOT_NAMED 1948-02-02 09:00:00 NR -10.7247 64.1779 main 1261 1252 _____P________ -1 -10.7247 64.1779 99 1 219
1948033S11064 1948 14 SI MM NOT_NAMED 1948-02-02 12:00:00 NR -10.7530 64.1531 main 1252 1246 _____P________ -1 -10.7530 64.1531 99 1 224
1948033S11064 1948 14 SI MM NOT_NAMED 1948-02-02 15:00:00 NR -10.7885 64.1230 main 1246 1246 _____P________ -1 -10.7885 64.1230 99 1 219
1948033S11064 1948 14 SI MM NOT_NAMED 1948-02-02 18:00:00 NR -10.8348 64.0849 main 1246 1230 _____P________ -1 -10.8348 64.0849 99 1 219
1948033S11064 1948 14 SI MM NOT_NAMED 1948-02-02 21:00:00 NR -10.8955 64.0363 main 1230 1221 _____P________ -1 -10.8955 64.0363 99 2 218
1948033S11064 1948 14 SI MM NOT_NAMED 1948-02-03 00:00:00 NR -10.9742 63.9744 main 1221 1206 _____P________ -1 -10.9742 63.9744 99 2 217
1948033S11064 1948 14 SI MM NOT_NAMED 1948-02-03 03:00:00 NR -11.0745 63.8965 main 1206 1206 _____P________ -1 -11.0745 63.8965 99 2 321
1948033S11064 1948 14 SI MM NOT_NAMED 1948-02-03 06:00:00 TS -10.8143 63.8429 reunion main 1228 1213 O____O___OO___ jtwc_sh SH101948 -10.3000 63.9000 -1 -11.2000 63.8000 99 9.90000 -10.3000 63.9000 TC 25 -10.3000 63.9000 7 3 315
1948033S11064 1948 14 SI MM NOT_NAMED 1948-02-03 09:00:00 TS -10.8741 63.6915 main 1213 1192 P____P___PP___ SH101948 -10.5475 63.7001 -1 -11.3534 63.6831 99 -10.5475 63.7001 TC 25 -10.5689 63.6911 7 4 236
1948033S11064 1948 14 SI MM NOT_NAMED 1948-02-03 12:00:00 TS -11.0328 63.5113 main 1192 1162 O____P___OP___ jtwc_sh SH101948 -10.8000 63.5000 -1 -11.5340 63.5476 99 -10.8000 63.5000 TC 25 -10.8301 63.4855 7 5 225
1948033S11064 1948 14 SI MM NOT_NAMED 1948-02-03 15:00:00 TS -11.2329 63.3209 main 1162 1122 P____P___PP___ SH101948 -11.0575 63.3000 -1 -11.7401 63.3963 99 -11.0575 63.3000 TC 30 -11.0763 63.2872 7 6 221
1948033S11064 1948 14 SI MM NOT_NAMED 1948-02-03 18:00:00 TS -11.4676 63.1330 main 1122 1097 O____P___OO___ jtwc_sh SH101948 -11.3000 63.1000 -1 -11.9703 63.2320 99 -11.3000 63.1000 TC 35 -11.3000 63.1000 2 6 220
1948033S11064 1948 14 SI MM NOT_NAMED 1948-02-03 21:00:00 TS -11.6806 62.9420 main 1092 1067 P____P___PP___ SH101948 -11.5000 62.8925 -1 -12.2229 63.0574 99 -11.5000 62.8925 TC 35 -11.4996 62.9256 2 6 220
1948033S11064 1948 14 SI MM NOT_NAMED 1948-02-04 00:00:00 TS -11.8985 62.7581 main 1067 1036 O____P___OP___ jtwc_sh SH101948 -11.7000 62.7000 -1 -12.4964 62.8754 99 -11.7000 62.7000 TC 35 -11.6974 62.7569 2 6 217
1948033S11064 1948 14 SI MM NOT_NAMED 1948-02-04 03:00:00 TS -12.1377 62.5933 main 1036 997 P____P___PP___ SH101948 -11.9200 62.5499 -1 -12.7893 62.6887 99 -11.9200 62.5499 TC 35 -11.9215 62.5849 2 6 212
1948033S11064 1948 14 SI MM NOT_NAMED 1948-02-04 06:00:00 TS -12.4250 62.4250 reunion main 997 947 O____O___OO___ jtwc_sh SH101948 -12.2000 62.4000 -1 -13.1000 62.5000 99 9.90000 -12.2000 62.4000 TC 35 -12.2000 62.4000 2 7 209
1948033S11064 1948 14 SI MM NOT_NAMED 1948-02-04 09:00:00 TS -12.7782 62.2285 main 947 897 P____P___PP___ SH101948 -12.5700 62.2150 -1 -13.3971 62.3067 99 -12.5700 62.2150 TC 35 -12.5757 62.1775 2 9 208
1948033S11064 1948 14 SI MM NOT_NAMED 1948-02-04 12:00:00 TS -13.1795 62.0125 main 897 848 O____P___OP___ jtwc_sh SH101948 -13.0000 62.0000 -1 -13.7130 62.1072 99 -13.0000 62.0000 TC 35 -13.0051 61.9429 2 9 208
1948033S11064 1948 14 SI MM NOT_NAMED 1948-02-04 15:00:00 TS -13.6049 61.7756 main 848 798 P____P___PP___ SH101948 -13.4575 61.7426 -1 -14.0476 61.9056 99 -13.4575 61.7426 TC 35 -13.4570 61.7118 2 10 208
1948033S11064 1948 14 SI MM NOT_NAMED 1948-02-04 18:00:00 TS -14.0252 61.5514 main 798 749 O____P___OO___ jtwc_sh SH101948 -13.9000 61.5000 -1 -14.4008 61.7055 99 -13.9000 61.5000 TC 35 -13.9000 61.5000 2 9 206
1948033S11064 1948 14 SI MM NOT_NAMED 1948-02-04 21:00:00 TS -14.3881 61.3742 main 749 709 P____P___PP___ SH101948 -14.2575 61.3348 -1 -14.7726 61.5110 99 -14.2575 61.3348 TC 30 -14.2649 61.3159 2 8 204
1948033S11064 1948 14 SI MM NOT_NAMED 1948-02-05 00:00:00 TS -14.7458 61.2202 main 709 665 O____P___OP___ jtwc_sh SH101948 -14.6000 61.2000 -1 -15.1631 61.3260 99 -14.6000 61.2000 TC 25 -14.6199 61.1546 2 8 202
1948033S11064 1948 14 SI MM NOT_NAMED 1948-02-05 03:00:00 TS -15.1293 61.0638 main 665 616 P____P___PP___ SH101948 -14.9775 61.0425 -1 -15.5722 61.1543 99 -14.9775 61.0425 TC 25 -14.9900 61.0160 2 9 199
1948033S11064 1948 14 SI MM NOT_NAMED 1948-02-05 06:00:00 TS -15.5500 60.9250 reunion main 616 563 O____O___OO___ jtwc_sh SH101948 -15.4000 60.9000 -1 -16.0000 61.0000 99 9.90000 -15.4000 60.9000 TC 25 -15.4000 60.9000 1 9 196
1948033S11064 1948 14 SI MM NOT_NAMED 1948-02-05 09:00:00 TS -16.0315 60.8044 main 563 512 P____P___PP___ SH101948 -15.8775 60.7850 -1 -16.4771 60.8564 99 -15.8775 60.7850 TC 25 -15.8940 60.7913 1 10 192
1948033S11064 1948 14 SI MM NOT_NAMED 1948-02-05 12:00:00 TS -16.5518 60.7081 main 503 453 O____P___OP___ jtwc_sh SH101948 -16.4000 60.7000 -1 -16.9798 60.7274 99 -16.4000 60.7000 TC 25 -16.4275 60.7051 1 11 189
1948033S11064 1948 14 SI MM NOT_NAMED 1948-02-05 15:00:00 TS -17.0923 60.6313 main 453 413 P____P___PP___ SH101948 -16.9500 60.6350 -1 -17.4969 60.6137 99 -16.9500 60.6350 TC 25 -16.9722 60.6413 1 11 187
1948033S11064 1948 14 SI MM NOT_NAMED 1948-02-05 18:00:00 TS -17.6293 60.5790 main 413 378 O____P___OO___ jtwc_sh SH101948 -17.5000 60.6000 -1 -18.0170 60.5160 99 -17.5000 60.6000 TC 25 -17.5000 60.6000 1 11 184
1948033S11064 1948 14 SI MM NOT_NAMED 1948-02-05 21:00:00 TS -18.1424 60.5495 main 369 338 P____P___PP___ SH101948 -18.0225 60.5924 -1 -18.5287 60.4349 99 -18.0225 60.5924 TC 25 -17.9959 60.5781 1 10 183
1948033S11064 1948 14 SI MM NOT_NAMED 1948-02-06 00:00:00 TS -18.6220 60.5371 main 338 317 O____P___OP___ jtwc_sh SH101948 -18.5000 60.6000 -1 -19.0207 60.3714 99 -18.5000 60.6000 TC 25 -18.4674 60.5771 1 9 182
1948033S11064 1948 14 SI MM NOT_NAMED 1948-02-06 03:00:00 TS -19.0580 60.5284 main 312 299 P____P___PP___ SH101948 -18.9225 60.6000 -1 -19.4816 60.3261 99 -18.9225 60.6000 TC 25 -18.9053 60.5876 1 8 181
1948033S11064 1948 14 SI MM NOT_NAMED 1948-02-06 06:00:00 TS -19.4500 60.5250 reunion main 299 287 O____O___OO___ jtwc_sh SH101948 -19.3000 60.6000 -1 -19.9000 60.3000 99 9.90000 -19.3000 60.6000 TC 25 -19.3000 60.6000 1 8 0
1948033S11064 1948 14 SI MM NOT_NAMED 1948-02-06 09:00:00 TS -19.8110 60.5166 main 287 282 P____P___PP___ SH101948 -19.6725 60.6000 -1 -20.2438 60.2826 99 -19.6725 60.6000 TC 25 -19.6553 60.5839 1 7 0
1948033S11064 1948 14 SI MM NOT_NAMED 1948-02-06 12:00:00 TS -20.1289 60.5140 main 282 281 O____P___OP___ jtwc_sh SH101948 -20.0000 60.6000 -1 -20.5483 60.2857 99 -20.0000 60.6000 TC 25 -19.9674 60.5703 1 6 182
1948033S11064 1948 14 SI MM NOT_NAMED 1948-02-06 15:00:00 TS -20.3989 60.5159 main 281 281 P____P___PP___ SH101948 -20.2650 60.5925 -1 -20.8197 60.3069 99 -20.2650 60.5925 TC 30 -20.2459 60.5715 1 5 177
1948033S11064 1948 14 SI MM NOT_NAMED 1948-02-06 18:00:00 TS -20.6411 60.5359 main 283 283 O____P___OO___ jtwc_sh SH101948 -20.5000 60.6000 -1 -21.0644 60.3438 99 -20.5000 60.6000 TC 35 -20.5000 60.6000 2 5 174
1948033S11064 1948 14 SI MM NOT_NAMED 1948-02-06 21:00:00 TS -20.8854 60.5784 main 299 299 P____P___PP___ SH101948 -20.7575 60.6275 -1 -21.2885 60.3940 99 -20.7575 60.6275 TC 35 -20.7382 60.6647 2 5 169
1948033S11064 1948 14 SI MM NOT_NAMED 1948-02-07 00:00:00 TS -21.1453 60.6384 main 304 304 O____P___OP___ jtwc_sh SH101948 -21.0000 60.7000 -1 -21.4984 60.4550 99 -21.0000 60.7000 TC 35 -20.9651 60.7595 2 5 166
1948033S11064 1948 14 SI MM NOT_NAMED 1948-02-07 03:00:00 TS -21.4010 60.7177 main 325 325 P____P___PP___ SH101948 -21.2101 60.8324 -1 -21.7001 60.5245 99 -21.2101 60.8324 TC 35 -21.1845 60.8746 2 6 167
1948033S11064 1948 14 SI MM NOT_NAMED 1948-02-07 06:00:00 TS -21.6857 60.7714 reunion main 348 343 O____O___OO___ jtwc_sh SH101948 -21.4000 61.0000 -1 -21.9000 60.6000 99 9.90000 -21.4000 61.0000 TC 35 -21.4000 61.0000 2 7 183
1948033S11064 1948 14 SI MM NOT_NAMED 1948-02-07 09:00:00 NR -22.1031 60.6793 main 358 358 _____P________ SH101948 -1 -22.1031 60.6793 99 TC 2 6 180
1948033S11064 1948 14 SI MM NOT_NAMED 1948-02-07 12:00:00 NR -22.3100 60.7618 main 378 378 _____P________ -1 -22.3100 60.7618 99 2 4 160
1948033S11064 1948 14 SI MM NOT_NAMED 1948-02-07 15:00:00 NR -22.5202 60.8470 main 390 390 _____P________ -1 -22.5202 60.8470 99 2 5 160
1948033S11064 1948 14 SI MM NOT_NAMED 1948-02-07 18:00:00 NR -22.7330 60.9345 main 412 412 _____P________ -1 -22.7330 60.9345 99 5 159
1948033S11064 1948 14 SI MM NOT_NAMED 1948-02-07 21:00:00 NR -22.9479 61.0240 main 433 433 _____P________ -1 -22.9479 61.0240 99 5 159
1948033S11064 1948 14 SI MM NOT_NAMED 1948-02-08 00:00:00 NR -23.1645 61.1150 main 462 462 _____P________ -1 -23.1645 61.1150 99 5 159
1948033S11064 1948 14 SI MM NOT_NAMED 1948-02-08 03:00:00 NR -23.3820 61.2071 main 485 485 _____P________ -1 -23.3820 61.2071 99 5 159
1948033S11064 1948 14 SI MM NOT_NAMED 1948-02-08 06:00:00 NR -23.6000 61.3000 reunion main 507 _____O________ -1 -23.6000 61.3000 99 9.90000 5 159

IBTrACS Databaseについて

本データベースは、米国NOAAが公開する1842年以降の世界の熱帯低気圧のベストトラックデータアーカイブInternational Best Track Archive for Climate Stewardship (IBTrACS)を、ウェブで閲覧しやすい形式に変換したものです。

最終更新日:2021-11-26